createdAt,value
2017-09-08T00:01:37.263Z,23.73
2017-09-08T00:04:05.841Z,23.74
2017-09-08T00:06:33.274Z,23.74
2017-09-08T00:09:01.534Z,23.74
2017-09-08T00:11:29.382Z,23.74
2017-09-08T00:13:56.832Z,23.74
2017-09-08T00:16:24.266Z,23.73
2017-09-08T00:18:51.794Z,23.73
2017-09-08T00:21:19.292Z,23.72
2017-09-08T00:23:46.744Z,23.72
2017-09-08T00:26:14.185Z,23.72
2017-09-08T00:28:41.616Z,23.72
2017-09-08T00:31:09.067Z,23.72
2017-09-08T00:33:36.503Z,23.72
2017-09-08T00:36:03.941Z,23.71
2017-09-08T00:38:31.379Z,23.71
2017-09-08T00:40:58.829Z,23.71
2017-09-08T00:43:26.253Z,23.71
2017-09-08T00:45:53.715Z,23.71
2017-09-08T00:48:21.151Z,23.71
2017-09-08T00:50:48.593Z,23.70
2017-09-08T00:53:16.034Z,23.70
2017-09-08T00:55:43.483Z,23.70
2017-09-08T00:58:11.048Z,23.70
2017-09-08T01:00:38.553Z,23.70
2017-09-08T01:03:05.974Z,23.69
2017-09-08T01:05:33.410Z,23.69
2017-09-08T01:08:00.923Z,23.69
2017-09-08T01:10:28.364Z,23.69
2017-09-08T01:12:55.793Z,23.68
2017-09-08T01:15:23.269Z,23.68
2017-09-08T01:17:50.801Z,23.68
2017-09-08T01:20:18.236Z,23.68
2017-09-08T01:22:45.673Z,23.68
2017-09-08T01:25:13.211Z,23.67
2017-09-08T01:27:40.644Z,23.67
2017-09-08T01:30:08.098Z,23.67
2017-09-08T01:32:35.528Z,23.67
2017-09-08T01:35:03.122Z,23.66
2017-09-08T01:37:30.582Z,23.67
2017-09-08T01:39:58.034Z,23.67
2017-09-08T01:42:25.470Z,23.66
2017-09-08T01:44:52.930Z,23.66
2017-09-08T01:47:20.385Z,23.67
2017-09-08T01:49:47.839Z,23.67
2017-09-08T01:52:15.279Z,23.67
2017-09-08T01:54:42.704Z,23.66
2017-09-08T01:57:10.144Z,23.66
2017-09-08T01:59:37.641Z,23.65
2017-09-08T02:02:05.084Z,23.65
2017-09-08T02:04:32.526Z,23.65
2017-09-08T02:06:59.959Z,23.65
2017-09-08T02:09:27.392Z,23.64
2017-09-08T02:11:54.849Z,23.64
2017-09-08T02:14:22.338Z,23.65
2017-09-08T02:16:49.790Z,23.65
2017-09-08T02:19:17.224Z,23.63
2017-09-08T02:21:50.428Z,23.64
2017-09-08T02:24:17.881Z,23.64
2017-09-08T02:26:45.327Z,23.64
2017-09-08T02:29:13.535Z,23.63
2017-09-08T02:31:41.024Z,23.64
2017-09-08T02:34:08.458Z,23.63
2017-09-08T02:36:35.902Z,23.63
2017-09-08T02:39:03.337Z,23.63
2017-09-08T02:41:30.834Z,23.62
2017-09-08T02:43:58.295Z,23.63
2017-09-08T02:46:25.744Z,23.63
2017-09-08T02:48:53.179Z,23.62
2017-09-08T02:51:20.613Z,23.63
2017-09-08T02:53:48.050Z,23.63
2017-09-08T02:56:15.478Z,23.63
2017-09-08T02:58:43.113Z,23.62
2017-09-08T03:01:10.618Z,23.62
2017-09-08T03:03:38.053Z,23.62
2017-09-08T03:06:05.487Z,23.62
2017-09-08T03:08:32.985Z,23.61
2017-09-08T03:11:00.410Z,23.62
2017-09-08T03:13:27.866Z,23.61
2017-09-08T03:15:55.289Z,23.61
2017-09-08T03:18:22.724Z,23.62
2017-09-08T03:20:50.177Z,23.62
2017-09-08T03:23:17.619Z,23.62
2017-09-08T03:25:45.049Z,23.61
2017-09-08T03:28:12.510Z,23.62
2017-09-08T03:30:39.943Z,23.61
2017-09-08T03:33:07.571Z,23.61
2017-09-08T03:35:35.022Z,23.61
2017-09-08T03:38:02.459Z,23.60
2017-09-08T03:40:29.891Z,23.60
2017-09-08T03:42:57.359Z,23.61
2017-09-08T03:45:24.786Z,23.60
2017-09-08T03:47:52.278Z,23.61
2017-09-08T03:50:19.770Z,23.61
2017-09-08T03:52:47.201Z,23.60
2017-09-08T03:55:14.632Z,23.60
2017-09-08T03:57:42.094Z,23.60
2017-09-08T04:00:09.593Z,23.60
2017-09-08T04:02:37.254Z,23.59
2017-09-08T04:05:04.709Z,23.60
2017-09-08T04:07:32.145Z,23.59
2017-09-08T04:09:59.613Z,23.60
2017-09-08T04:12:27.084Z,23.58
2017-09-08T04:14:54.509Z,23.58
2017-09-08T04:17:21.941Z,23.58
2017-09-08T04:19:49.389Z,23.57
2017-09-08T04:22:16.826Z,23.58
2017-09-08T04:24:44.259Z,23.58
2017-09-08T04:27:11.779Z,23.57
2017-09-08T04:29:39.216Z,23.58
2017-09-08T04:32:07.131Z,23.58
2017-09-08T04:34:34.577Z,23.58
2017-09-08T04:37:02.005Z,23.58
2017-09-08T04:39:29.434Z,23.58
2017-09-08T04:41:56.877Z,23.58
2017-09-08T04:44:24.363Z,23.57
2017-09-08T04:46:51.792Z,23.56
2017-09-08T04:49:19.249Z,23.57
2017-09-08T04:51:46.678Z,23.56
2017-09-08T04:54:14.152Z,23.56
2017-09-08T04:56:41.649Z,23.56
2017-09-08T04:59:09.072Z,23.58
2017-09-08T05:01:36.514Z,23.59
2017-09-08T05:04:03.979Z,23.60
2017-09-08T05:06:31.411Z,23.62
2017-09-08T05:08:58.834Z,23.63
2017-09-08T05:11:26.278Z,23.63
2017-09-08T05:13:53.859Z,23.64
2017-09-08T05:16:21.284Z,23.64
2017-09-08T05:18:48.783Z,23.63
2017-09-08T05:21:16.221Z,23.64
2017-09-08T05:23:43.667Z,23.65
2017-09-08T05:26:11.169Z,23.65
2017-09-08T05:28:38.597Z,23.65
2017-09-08T05:31:06.179Z,23.65
2017-09-08T05:33:33.769Z,23.66
2017-09-08T05:36:01.205Z,23.66
2017-09-08T05:38:28.641Z,23.67
2017-09-08T05:40:56.586Z,23.67
2017-09-08T05:43:24.043Z,23.67
2017-09-08T05:45:51.474Z,23.68
2017-09-08T05:48:18.917Z,23.67
2017-09-08T05:50:46.358Z,23.68
2017-09-08T05:53:13.813Z,23.69
2017-09-08T05:55:41.267Z,23.70
2017-09-08T05:58:08.695Z,23.69
2017-09-08T06:00:36.119Z,23.69
2017-09-08T06:03:03.575Z,23.70
2017-09-08T06:05:31.024Z,23.70
2017-09-08T06:07:58.456Z,23.70
2017-09-08T06:10:25.922Z,23.70
2017-09-08T06:12:53.364Z,23.70
2017-09-08T06:15:20.803Z,23.71
2017-09-08T06:17:48.257Z,23.71
2017-09-08T06:20:15.701Z,23.71
2017-09-08T06:22:43.133Z,23.71
2017-09-08T06:25:10.606Z,23.71
2017-09-08T06:27:38.059Z,23.71
2017-09-08T06:30:05.514Z,23.71
2017-09-08T06:32:32.978Z,23.71
2017-09-08T06:35:00.448Z,23.71
2017-09-08T06:37:27.886Z,23.71
2017-09-08T06:39:55.345Z,23.72
2017-09-08T06:42:22.795Z,23.71
2017-09-08T06:44:50.240Z,23.72
2017-09-08T06:47:17.694Z,23.71
2017-09-08T06:49:45.124Z,23.70
2017-09-08T06:52:12.578Z,23.71
2017-09-08T06:54:40.048Z,23.73
2017-09-08T06:57:07.479Z,23.73
2017-09-08T06:59:34.967Z,23.72
2017-09-08T07:02:02.430Z,23.72
2017-09-08T07:04:29.871Z,23.73
2017-09-08T07:06:57.301Z,23.72
2017-09-08T07:09:24.761Z,23.72
2017-09-08T07:11:52.183Z,23.73
2017-09-08T07:14:19.613Z,23.72
2017-09-08T07:16:47.084Z,23.72
2017-09-08T07:19:14.514Z,23.71
2017-09-08T07:21:42.008Z,23.72
2017-09-08T07:24:09.479Z,23.71
2017-09-08T07:26:36.923Z,23.71
2017-09-08T07:29:04.350Z,23.71
2017-09-08T07:31:31.806Z,23.68
2017-09-08T07:33:59.248Z,23.69
2017-09-08T07:36:26.698Z,23.71
2017-09-08T07:38:54.160Z,23.72
2017-09-08T07:41:21.598Z,23.73
2017-09-08T07:43:49.034Z,23.72
2017-09-08T07:46:16.526Z,23.73
2017-09-08T07:48:43.952Z,23.73
2017-09-08T07:51:11.399Z,23.73
2017-09-08T07:53:38.862Z,23.73
2017-09-08T07:56:06.321Z,23.74
2017-09-08T07:58:33.753Z,23.73
2017-09-08T08:01:01.235Z,23.73
2017-09-08T08:03:28.665Z,23.74
2017-09-08T08:05:56.092Z,23.74
2017-09-08T08:08:23.555Z,23.73
2017-09-08T08:10:50.993Z,23.74
2017-09-08T08:13:18.431Z,23.73
2017-09-08T08:15:45.859Z,23.74
2017-09-08T08:18:13.296Z,23.74
2017-09-08T08:20:40.893Z,23.73
2017-09-08T08:23:08.393Z,23.74
2017-09-08T08:25:35.842Z,23.74
2017-09-08T08:28:03.790Z,23.74
2017-09-08T08:30:31.258Z,23.74
2017-09-08T08:32:58.688Z,23.74
2017-09-08T08:35:26.128Z,23.75
2017-09-08T08:37:53.574Z,23.74
2017-09-08T08:40:21.078Z,23.75
2017-09-08T08:42:48.520Z,23.74
2017-09-08T08:45:15.972Z,23.74
2017-09-08T08:47:43.418Z,23.74
2017-09-08T08:50:10.858Z,23.72
2017-09-08T08:52:38.408Z,23.74
2017-09-08T08:55:05.841Z,23.73
2017-09-08T08:57:33.387Z,23.74
2017-09-08T09:00:00.841Z,23.74
2017-09-08T09:02:28.332Z,23.75
2017-09-08T09:04:55.759Z,23.74
2017-09-08T09:07:23.283Z,23.74
2017-09-08T09:09:50.731Z,23.72
2017-09-08T09:12:18.259Z,23.72
2017-09-08T09:14:45.750Z,23.73
2017-09-08T09:17:13.177Z,23.75
2017-09-08T09:19:40.615Z,23.76
2017-09-08T09:22:08.069Z,23.74
2017-09-08T09:24:35.576Z,23.74
2017-09-08T09:27:03.096Z,23.76
2017-09-08T09:29:30.561Z,23.75
2017-09-08T09:31:57.982Z,23.75
2017-09-08T09:34:25.425Z,23.75
2017-09-08T09:36:52.892Z,23.75
2017-09-08T09:39:20.328Z,23.75
2017-09-08T09:41:47.852Z,23.74
2017-09-08T09:44:15.308Z,23.74
2017-09-08T09:46:43.380Z,23.73
2017-09-08T09:49:10.809Z,23.74
2017-09-08T09:51:38.339Z,23.77
2017-09-08T09:54:05.787Z,23.77
2017-09-08T09:56:34.548Z,23.77
2017-09-08T09:59:01.985Z,23.76
2017-09-08T10:01:29.407Z,23.76
2017-09-08T10:03:56.851Z,23.76
2017-09-08T10:06:24.323Z,23.75
2017-09-08T10:08:51.747Z,23.73
2017-09-08T10:11:19.185Z,23.74
2017-09-08T10:13:46.786Z,23.75
2017-09-08T10:16:14.259Z,23.77
2017-09-08T10:18:41.695Z,23.76
2017-09-08T10:21:09.152Z,23.77
2017-09-08T10:23:36.589Z,23.77
2017-09-08T10:26:04.103Z,23.78
2017-09-08T10:28:31.571Z,23.82
2017-09-08T10:31:00.138Z,23.82
2017-09-08T10:33:27.574Z,23.80
2017-09-08T10:35:55.114Z,23.79
2017-09-08T10:38:22.564Z,23.80
2017-09-08T10:40:50.000Z,23.79
2017-09-08T10:43:17.460Z,23.79
2017-09-08T10:45:44.918Z,23.83
2017-09-08T10:48:12.367Z,23.83
2017-09-08T10:50:39.959Z,23.83
2017-09-08T10:53:07.387Z,23.84
2017-09-08T10:55:34.852Z,23.84
2017-09-08T10:58:02.309Z,23.84
2017-09-08T11:00:30.195Z,23.84
2017-09-08T11:02:57.667Z,23.83
2017-09-08T11:05:25.158Z,23.84
2017-09-08T11:07:52.609Z,23.85
2017-09-08T11:10:20.306Z,23.85
2017-09-08T11:12:47.767Z,23.85
2017-09-08T11:15:15.179Z,23.85
2017-09-08T11:17:42.617Z,23.85
2017-09-08T11:20:10.153Z,23.86
2017-09-08T11:22:37.612Z,23.87
2017-09-08T11:25:05.055Z,23.87
2017-09-08T11:27:32.492Z,23.87
2017-09-08T11:29:59.928Z,23.86
2017-09-08T11:32:33.068Z,23.86
2017-09-08T11:35:06.136Z,23.87
2017-09-08T11:37:33.581Z,23.87
2017-09-08T11:40:01.016Z,23.86
2017-09-08T11:42:28.567Z,23.86
2017-09-08T11:44:56.015Z,23.87
2017-09-08T11:47:23.461Z,23.88
2017-09-08T11:53:53.076Z,23.87
2017-09-08T11:56:20.501Z,23.88
2017-09-08T11:58:47.949Z,23.89
2017-09-08T12:01:15.419Z,23.90
2017-09-08T12:03:42.873Z,23.90
2017-09-08T12:06:10.601Z,23.89
2017-09-08T12:08:38.055Z,23.88
2017-09-08T12:11:05.474Z,23.88
2017-09-08T12:13:32.880Z,23.88
2017-09-08T12:16:00.399Z,23.90
2017-09-08T12:18:27.908Z,23.88
2017-09-08T12:20:55.332Z,23.89
2017-09-08T12:23:22.778Z,23.89
2017-09-08T12:25:50.202Z,23.90
2017-09-08T12:28:17.703Z,23.90
2017-09-08T12:30:45.180Z,23.91
2017-09-08T12:33:12.615Z,23.91
2017-09-08T12:38:06.638Z,23.91
2017-09-08T12:40:34.065Z,23.91
2017-09-08T12:43:01.505Z,23.91
2017-09-08T12:45:28.949Z,23.92
2017-09-08T12:47:56.369Z,23.91
2017-09-08T12:50:23.827Z,23.93
2017-09-08T12:52:51.363Z,23.93
2017-09-08T12:55:18.780Z,23.89
2017-09-08T12:57:46.209Z,23.91
2017-09-08T13:00:13.682Z,23.90
2017-09-08T13:02:41.247Z,23.92
2017-09-08T13:05:08.690Z,23.93
2017-09-08T13:07:36.122Z,23.93
2017-09-08T13:10:03.547Z,23.94
2017-09-08T13:12:30.967Z,23.93
2017-09-08T13:14:58.418Z,23.93
2017-09-08T13:17:25.864Z,23.92
2017-09-08T13:19:53.289Z,23.92
2017-09-08T13:22:20.840Z,23.91
2017-09-08T13:24:48.262Z,23.93
2017-09-08T13:27:15.694Z,23.92
2017-09-08T13:29:43.150Z,23.92
2017-09-08T13:32:10.627Z,23.93
2017-09-08T13:34:38.120Z,23.92
2017-09-08T13:37:05.569Z,23.93
2017-09-08T13:39:33.009Z,23.91
2017-09-08T13:42:00.432Z,23.93
2017-09-08T13:44:27.966Z,23.93
2017-09-08T13:46:55.387Z,23.93
2017-09-08T13:49:22.821Z,23.93
2017-09-08T13:51:50.305Z,23.93
2017-09-08T13:54:18.137Z,23.95
2017-09-08T13:56:45.639Z,23.91
2017-09-08T13:59:13.187Z,23.95
2017-09-08T14:01:40.623Z,23.95
2017-09-08T14:04:08.056Z,23.94
2017-09-08T14:06:35.511Z,23.97
2017-09-08T14:09:02.942Z,23.97
2017-09-08T14:11:30.375Z,23.97
2017-09-08T14:13:57.861Z,23.98
2017-09-08T14:16:25.314Z,23.99
2017-09-08T14:18:52.745Z,23.99
2017-09-08T14:21:20.324Z,24.00
2017-09-08T14:23:47.776Z,24.00
2017-09-08T14:26:15.196Z,24.00
2017-09-08T14:28:42.664Z,24.01
2017-09-08T14:31:10.080Z,24.00
2017-09-08T14:33:37.519Z,24.00
2017-09-08T14:36:04.991Z,24.00
2017-09-08T14:38:32.419Z,24.01
2017-09-08T14:40:59.841Z,24.01
2017-09-08T14:43:27.366Z,24.01
2017-09-08T14:45:54.902Z,24.01
2017-09-08T14:48:22.344Z,23.99
2017-09-08T14:50:49.903Z,23.99
2017-09-08T14:53:17.509Z,23.99
2017-09-08T14:55:44.931Z,24.00
2017-09-08T14:58:12.395Z,24.02
2017-09-08T15:00:39.809Z,24.02
2017-09-08T15:03:07.235Z,24.02
2017-09-08T15:05:34.715Z,24.01
2017-09-08T15:08:02.171Z,24.01
2017-09-08T15:10:29.603Z,24.02
2017-09-08T15:12:57.125Z,24.02
2017-09-08T15:15:24.533Z,24.02
2017-09-08T15:17:51.944Z,24.01
2017-09-08T15:20:19.509Z,24.01
2017-09-08T15:22:46.940Z,24.01
2017-09-08T15:25:14.448Z,24.01
2017-09-08T15:27:41.887Z,24.01
2017-09-08T15:30:09.329Z,23.98
2017-09-08T15:32:36.769Z,23.99
2017-09-08T15:35:04.239Z,23.96
2017-09-08T15:37:31.800Z,23.95
2017-09-08T15:39:59.229Z,23.98
2017-09-08T15:42:26.693Z,23.98
2017-09-08T15:44:54.108Z,23.99
2017-09-08T15:47:21.549Z,24.00
2017-09-08T15:49:48.989Z,24.03
2017-09-08T15:52:16.413Z,24.04
2017-09-08T15:54:43.827Z,24.07
2017-09-08T15:57:11.445Z,24.06
2017-09-08T15:59:38.856Z,24.06
2017-09-08T16:02:06.273Z,24.06
2017-09-08T16:04:33.746Z,24.04
2017-09-08T16:07:01.172Z,24.04
2017-09-08T16:09:28.611Z,24.04
2017-09-08T16:11:56.100Z,24.05
2017-09-08T16:14:23.541Z,24.05
2017-09-08T16:16:50.993Z,24.06
2017-09-08T16:19:18.435Z,24.04
2017-09-08T16:21:45.859Z,24.03
2017-09-08T16:24:13.316Z,24.02
2017-09-08T16:26:40.779Z,24.03
2017-09-08T16:29:08.253Z,24.04
2017-09-08T16:31:35.709Z,24.06
2017-09-08T16:34:04.008Z,24.06
2017-09-08T16:36:31.452Z,24.05
2017-09-08T16:38:59.171Z,24.06
2017-09-08T16:41:26.736Z,24.06
2017-09-08T16:43:54.179Z,24.06
2017-09-08T16:46:21.659Z,24.04
2017-09-08T16:48:49.113Z,24.03
2017-09-08T16:51:16.536Z,24.05
2017-09-08T16:53:44.150Z,24.05
2017-09-08T16:56:11.645Z,24.05
2017-09-08T16:58:39.078Z,24.03
2017-09-08T17:01:06.635Z,24.01
2017-09-08T17:03:34.125Z,24.01
2017-09-08T17:06:01.699Z,24.03
2017-09-08T17:08:29.137Z,24.02
2017-09-08T17:10:56.588Z,24.02
2017-09-08T17:13:23.998Z,24.04
2017-09-08T17:15:51.441Z,24.04
2017-09-08T17:18:18.896Z,24.03
2017-09-08T17:20:46.318Z,24.03
2017-09-08T17:23:13.730Z,24.01
2017-09-08T17:25:41.158Z,24.00
2017-09-08T17:28:08.580Z,24.01
2017-09-08T17:30:35.994Z,24.01
2017-09-08T17:33:03.489Z,23.99
2017-09-08T17:35:31.048Z,24.01
2017-09-08T17:37:58.632Z,24.01
2017-09-08T17:40:26.092Z,24.00
2017-09-08T17:42:53.511Z,24.02
2017-09-08T17:45:21.035Z,24.03
2017-09-08T17:47:48.504Z,24.03
2017-09-08T17:50:16.112Z,24.03
2017-09-08T17:52:43.586Z,24.01
2017-09-08T17:55:11.151Z,24.02
2017-09-08T17:57:38.598Z,24.02
2017-09-08T18:00:06.094Z,24.02
2017-09-08T18:02:33.550Z,24.03
2017-09-08T18:05:00.971Z,24.03
2017-09-08T18:07:28.408Z,24.03
2017-09-08T18:09:55.882Z,24.03
2017-09-08T18:12:23.432Z,24.03
2017-09-08T18:14:50.938Z,24.02
2017-09-08T18:17:18.391Z,24.02
2017-09-08T18:19:45.805Z,24.02
2017-09-08T18:22:13.223Z,24.02
2017-09-08T18:24:40.644Z,23.99
2017-09-08T18:27:08.063Z,24.00
2017-09-08T18:29:35.686Z,23.99
2017-09-08T18:32:03.492Z,24.01
2017-09-08T18:34:31.005Z,24.01
2017-09-08T18:36:59.323Z,24.01
2017-09-08T18:39:26.767Z,24.01
2017-09-08T18:41:54.196Z,24.02
2017-09-08T18:44:21.689Z,24.01
2017-09-08T18:46:49.204Z,24.01
2017-09-08T18:49:16.683Z,24.02
2017-09-08T18:51:44.112Z,24.02
2017-09-08T18:54:11.650Z,24.03
2017-09-08T18:56:39.153Z,24.02
2017-09-08T18:59:06.566Z,24.03
2017-09-08T19:01:34.032Z,24.04
2017-09-08T19:04:01.588Z,24.05
2017-09-08T19:06:29.023Z,24.05
2017-09-08T19:08:56.474Z,24.03
2017-09-08T19:11:23.930Z,24.02
2017-09-08T19:13:51.360Z,24.03
2017-09-08T19:16:18.884Z,24.04
2017-09-08T19:18:46.300Z,24.05
2017-09-08T19:21:13.728Z,24.05
2017-09-08T19:23:41.159Z,24.02
2017-09-08T19:26:08.599Z,24.01
2017-09-08T19:28:36.052Z,24.02
2017-09-08T19:31:04.267Z,24.01
2017-09-08T19:33:31.689Z,24.02
2017-09-08T19:35:59.114Z,24.03
2017-09-08T19:38:26.546Z,24.03
2017-09-08T19:40:53.966Z,24.01
2017-09-08T19:43:21.396Z,24.01
2017-09-08T19:45:48.852Z,24.00
2017-09-08T19:48:16.270Z,24.00
2017-09-08T19:50:43.759Z,24.00
2017-09-08T19:53:11.211Z,24.01
2017-09-08T19:55:38.618Z,24.01
2017-09-08T19:58:06.038Z,24.02
2017-09-08T20:00:33.462Z,24.02
2017-09-08T20:03:00.946Z,24.01
2017-09-08T20:05:28.535Z,24.02
2017-09-08T20:07:56.006Z,24.02
2017-09-08T20:10:23.429Z,24.01
2017-09-08T20:12:50.849Z,24.01
2017-09-08T20:15:18.304Z,24.01
2017-09-08T20:17:45.724Z,24.00
2017-09-08T20:20:13.155Z,24.00
2017-09-08T20:22:40.591Z,23.99
2017-09-08T20:25:08.012Z,23.97
2017-09-08T20:27:35.482Z,23.98
2017-09-08T20:30:02.893Z,23.98
2017-09-08T20:32:30.304Z,23.98
2017-09-08T20:34:57.715Z,23.96
2017-09-08T20:37:25.149Z,23.96
2017-09-08T20:39:52.558Z,23.96
2017-09-08T20:42:19.974Z,23.95
2017-09-08T20:44:47.571Z,23.94
2017-09-08T20:47:14.988Z,23.94
2017-09-08T20:49:42.412Z,23.94
2017-09-08T20:52:09.875Z,23.93
2017-09-08T20:54:37.300Z,23.93
2017-09-08T20:57:04.815Z,23.91
2017-09-08T20:59:32.263Z,23.91
2017-09-08T21:01:59.696Z,23.91
2017-09-08T21:04:27.122Z,23.91
2017-09-08T21:06:54.578Z,23.90
2017-09-08T21:09:22.000Z,23.90
2017-09-08T21:11:49.440Z,23.89
2017-09-08T21:14:16.887Z,23.89
2017-09-08T21:16:44.307Z,23.88
2017-09-08T21:19:11.737Z,23.87
2017-09-08T21:21:39.222Z,23.87
2017-09-08T21:24:06.649Z,23.87
2017-09-08T21:26:34.060Z,23.87
2017-09-08T21:29:02.292Z,23.87
2017-09-08T21:31:29.711Z,23.86
2017-09-08T21:33:57.131Z,23.86
2017-09-08T21:36:24.587Z,23.85
2017-09-08T21:38:52.009Z,23.85
2017-09-08T21:41:19.427Z,23.84
2017-09-08T21:43:46.902Z,23.84
2017-09-08T21:46:14.324Z,23.84
2017-09-08T21:48:41.745Z,23.84
2017-09-08T21:51:09.201Z,23.84
2017-09-08T21:53:36.619Z,23.83
2017-09-08T21:56:04.044Z,23.83
2017-09-08T21:58:31.510Z,23.83
2017-09-08T22:00:59.580Z,23.82
2017-09-08T22:03:27.012Z,23.82
2017-09-08T22:05:54.446Z,23.81
2017-09-08T22:08:21.912Z,23.81
2017-09-08T22:10:49.330Z,23.81
2017-09-08T22:13:16.777Z,23.81
2017-09-08T22:15:44.220Z,23.81
2017-09-08T22:18:11.651Z,23.80
2017-09-08T22:20:39.080Z,23.80
2017-09-08T22:23:06.545Z,23.80
2017-09-08T22:25:33.947Z,23.79
2017-09-08T22:28:01.411Z,23.79
2017-09-08T22:30:28.834Z,23.79
2017-09-08T22:32:56.249Z,23.78
2017-09-08T22:35:23.701Z,23.77
2017-09-08T22:37:51.115Z,23.77
2017-09-08T22:40:18.530Z,23.77
2017-09-08T22:42:45.976Z,23.77
2017-09-08T22:45:13.395Z,23.77
2017-09-08T22:47:40.812Z,23.76
2017-09-08T22:50:08.247Z,23.77
2017-09-08T22:52:35.666Z,23.77
2017-09-08T22:55:03.109Z,23.76
2017-09-08T22:57:30.544Z,23.76
2017-09-08T22:59:57.962Z,23.76
2017-09-08T23:02:25.394Z,23.76
2017-09-08T23:04:52.834Z,23.75
2017-09-08T23:07:20.266Z,23.74
2017-09-08T23:09:47.676Z,23.74
2017-09-08T23:12:15.165Z,23.74
2017-09-08T23:14:42.591Z,23.73
2017-09-08T23:17:10.023Z,23.73
2017-09-08T23:19:37.481Z,23.72
2017-09-08T23:22:05.329Z,23.72
2017-09-08T23:24:32.845Z,23.72
2017-09-08T23:27:00.327Z,23.73
2017-09-08T23:29:27.751Z,23.72
2017-09-08T23:31:55.267Z,23.72
2017-09-08T23:34:22.701Z,23.72
2017-09-08T23:36:50.126Z,23.72
2017-09-08T23:39:17.604Z,23.72
2017-09-08T23:41:45.041Z,23.71
2017-09-08T23:44:12.451Z,23.70
2017-09-08T23:46:39.886Z,23.71
2017-09-08T23:49:07.346Z,23.71
2017-09-08T23:51:34.771Z,23.70
2017-09-08T23:54:02.193Z,23.70
2017-09-08T23:56:29.628Z,23.70
2017-09-08T23:58:57.052Z,23.70
